NINIGRET RI US current weather conditions

sailwx.info

Wind from 206 at 6 knots gusting 14

Air temperature 3.3° C
Dewpoint -3.7° C

Last reported at 2019-Dec-08 19:25 UTC.
Time now 2019-Dec-08 20:36 UTC

Location: N 41°23' W 071°35'.
View on Google Maps.

See reports from other nearby stations

  
Tides and Currents Weather Stations Pressure Air Temp Water Temp Dewpoint Dewpoint Depression Visibility Wind Speed Wind Dir Waves Ship Positions
date/time (UTC)wind fromknots sea level pressurealtimeterstation pressurevisibilityair tempwater tempwave heightnotes
2019-Dec-08 19:25 206 6 gusting 14 3.3
2019-Dec-08 18:25 210 6 gusting 11 3.9
2019-Dec-08 17:25 217 3 gusting 8 3.3
2019-Dec-08 16:25 235 4 gusting 9 2.2
2019-Dec-08 15:25 179 3 gusting 5 1.7
2019-Dec-08 14:25 051 0 gusting 4 -0.0
2019-Dec-08 13:25 320 1 gusting 3 -3.9
2019-Dec-08 12:25 326 2 gusting 3 -7.8
2019-Dec-08 11:25 315 1 gusting 5 -7.8
2019-Dec-08 10:25 331 2 gusting 6 -7.8
2019-Dec-08 09:25 333 3 gusting 6 -6.7
2019-Dec-08 08:25 325 2 gusting 6 -6.7
2019-Dec-08 07:25 327 2 gusting 6 -6.7
2019-Dec-08 06:25 322 2 gusting 5 -6.1
2019-Dec-08 05:25 325 2 gusting 4 -6.7
2019-Dec-08 04:25 332 0 gusting 3 -6.7
2019-Dec-08 03:25 325 1 gusting 3 -5.6
2019-Dec-08 02:25 318 0 gusting 4 -5.0
2019-Dec-08 01:25 321 2 gusting 6 -3.9
2019-Dec-08 00:25 332 2 gusting 5 -3.3
2019-Dec-07 23:25 338 0 gusting 3 -3.3
2019-Dec-07 22:25 033 1 gusting 7 -2.2
2019-Dec-07 21:25 329 3 gusting 11 -0.0
2019-Dec-07 20:25 310 4 gusting 13 2.2
2019-Dec-07 19:25 295 6 gusting 13 2.8
2019-Dec-07 18:25 325 6 gusting 14 2.8
2019-Dec-07 17:25 339 8 gusting 18 2.8
2019-Dec-07 16:25 336 8 gusting 20 2.2
2019-Dec-07 15:25 326 5 gusting 13 1.7
2019-Dec-07 14:25 336 6 gusting 13 -0.0
2019-Dec-07 13:25 331 6 gusting 11 -1.1
2019-Dec-07 12:25 323 3 gusting 6 -2.8
2019-Dec-07 11:25 328 2 gusting 7 -2.2
2019-Dec-07 10:25 330 2 gusting 9 -1.7
2019-Dec-07 09:25 329 5 gusting 12 -1.1
2019-Dec-07 08:25 329 6 gusting 14 -0.6
2019-Dec-07 07:25 333 6 gusting 16 -0.0
2019-Dec-07 06:25 332 8 gusting 18 1.1
2019-Dec-07 05:25 334 6 gusting 16 2.2
2019-Dec-07 04:25 322 6 gusting 23 3.3
2019-Dec-07 03:25 321 9 gusting 24 5.0
2019-Dec-07 02:25 285 5 gusting 14 7.2
2019-Dec-07 01:25 271 6 gusting 17 8.9
2019-Dec-07 00:25 252 5 gusting 18 8.9
2019-Dec-06 23:25 234 8 gusting 23 8.9
2019-Dec-06 22:25 222 12 gusting 24 9.4
2019-Dec-06 21:25 229 10 gusting 26 8.9
2019-Dec-06 20:25 223 9 gusting 22 7.8